createdAt,value
2017-05-17T04:26:14.113Z,20.94
2017-05-17T04:27:14.793Z,20.93
2017-05-17T04:28:15.257Z,20.94
2017-05-17T04:29:14.464Z,20.92
2017-05-17T04:30:14.251Z,20.92
2017-05-17T04:31:14.201Z,20.96
2017-05-17T04:32:13.709Z,20.97
2017-05-17T04:33:14.365Z,20.93
2017-05-17T04:34:15.507Z,20.93
2017-05-17T04:35:14.262Z,20.95
2017-05-17T04:36:14.151Z,21.46
2017-05-17T04:37:15.476Z,21.52
2017-05-17T04:38:14.314Z,21.18
2017-05-17T04:39:13.896Z,21.01
2017-05-17T04:40:14.142Z,21.00
2017-05-17T04:41:14.122Z,21.49
2017-05-17T04:42:13.075Z,21.52
2017-05-17T04:43:14.591Z,21.55
2017-05-17T04:44:12.746Z,21.55
2017-05-17T04:45:13.255Z,21.56
2017-05-17T04:46:13.516Z,21.56
2017-05-17T04:47:14.100Z,21.56
2017-05-17T04:48:13.486Z,21.57
2017-05-17T04:49:12.994Z,21.56
2017-05-17T04:50:14.376Z,21.05
2017-05-17T04:51:11.920Z,20.98
2017-05-17T04:52:12.977Z,20.96
2017-05-17T04:53:14.102Z,20.95
2017-05-17T04:54:13.837Z,20.93
2017-05-17T04:55:15.247Z,20.92
2017-05-17T04:56:13.140Z,20.99
2017-05-17T04:57:13.582Z,20.92
2017-05-17T04:58:13.248Z,20.97
2017-05-17T04:59:13.930Z,20.92
2017-05-17T05:00:13.240Z,20.92
2017-05-17T05:01:14.072Z,20.92
2017-05-17T05:02:13.211Z,20.91
2017-05-17T05:03:13.951Z,20.91
2017-05-17T05:04:13.752Z,20.94
2017-05-17T05:05:13.066Z,21.45
2017-05-17T05:06:14.813Z,21.50
2017-05-17T05:07:13.118Z,21.54
2017-05-17T05:08:15.610Z,21.25
2017-05-17T05:09:13.819Z,21.01
2017-05-17T05:10:14.599Z,20.96
2017-05-17T05:11:12.891Z,20.94
2017-05-17T05:12:13.583Z,20.93
2017-05-17T05:13:13.645Z,20.96
2017-05-17T05:14:15.314Z,20.92
2017-05-17T05:15:14.150Z,20.91
2017-05-17T05:16:10.860Z,20.91
2017-05-17T05:17:14.155Z,20.91
2017-05-17T05:18:13.781Z,20.98
2017-05-17T05:19:13.111Z,20.91
2017-05-17T05:20:13.852Z,20.91
2017-05-17T05:21:15.047Z,20.90
2017-05-17T05:22:13.378Z,20.91
2017-05-17T05:23:13.721Z,20.91
2017-05-17T05:24:12.817Z,20.90
2017-05-17T05:25:14.132Z,20.91
2017-05-17T05:26:11.817Z,20.90
2017-05-17T05:27:13.627Z,21.44
2017-05-17T05:28:12.977Z,21.49
2017-05-17T05:29:13.264Z,21.16
2017-05-17T05:30:11.435Z,21.00
2017-05-17T05:31:14.132Z,20.95
2017-05-17T05:32:14.489Z,20.97
2017-05-17T05:33:14.271Z,20.93
2017-05-17T05:34:15.354Z,20.92
2017-05-17T05:35:13.775Z,20.92
2017-05-17T05:36:14.297Z,20.92
2017-05-17T05:37:14.877Z,20.91
2017-05-17T05:38:13.967Z,20.92
2017-05-17T05:39:13.676Z,20.92
2017-05-17T05:40:14.218Z,20.99
2017-05-17T05:41:11.676Z,20.91
2017-05-17T05:42:11.126Z,20.91
2017-05-17T05:43:11.307Z,20.91
2017-05-17T05:44:14.411Z,20.92
2017-05-17T05:45:14.427Z,20.92
2017-05-17T05:46:13.625Z,20.92
2017-05-17T05:47:13.953Z,20.92
2017-05-17T05:48:14.228Z,21.45
2017-05-17T05:49:11.535Z,20.97
2017-05-17T05:50:15.189Z,20.94
2017-05-17T05:51:14.389Z,20.93
2017-05-17T05:52:15.318Z,20.93
2017-05-17T05:53:13.950Z,20.93
2017-05-17T05:54:14.624Z,20.92
2017-05-17T05:55:14.578Z,20.92
2017-05-17T05:56:14.485Z,20.92
2017-05-17T05:57:09.474Z,20.92
2017-05-17T05:58:14.584Z,20.91
2017-05-17T05:59:13.249Z,20.92
2017-05-17T06:00:10.861Z,20.92
2017-05-17T06:01:13.485Z,20.92
2017-05-17T06:02:14.186Z,20.92
2017-05-17T06:03:14.039Z,20.92
2017-05-17T06:04:14.412Z,20.92
2017-05-17T06:05:13.728Z,20.94
2017-05-17T06:06:14.325Z,21.44
2017-05-17T06:07:15.422Z,21.51
2017-05-17T06:08:14.182Z,21.54
2017-05-17T06:09:13.018Z,21.55
2017-05-17T06:10:14.684Z,21.02
2017-05-17T06:11:14.812Z,20.96
2017-05-17T06:12:14.402Z,20.95
2017-05-17T06:13:14.512Z,20.94
2017-05-17T06:14:13.755Z,20.93
2017-05-17T06:15:14.377Z,20.93
2017-05-17T06:16:11.606Z,20.92
2017-05-17T06:17:10.668Z,20.92
2017-05-17T06:18:14.281Z,20.95
2017-05-17T06:19:17.006Z,20.92
2017-05-17T06:20:14.430Z,20.93
2017-05-17T06:21:14.194Z,20.93
2017-05-17T06:22:14.258Z,20.93
2017-05-17T06:23:15.202Z,20.93
2017-05-17T06:24:14.372Z,20.94
2017-05-17T06:25:15.340Z,20.94
2017-05-17T06:26:14.983Z,20.94
2017-05-17T06:27:14.067Z,20.95
2017-05-17T06:28:14.383Z,20.95
2017-05-17T06:29:14.881Z,21.05
2017-05-17T06:30:14.296Z,21.48
2017-05-17T06:31:14.724Z,21.55
2017-05-17T06:32:14.765Z,21.58
2017-05-17T06:33:14.707Z,21.62
2017-05-17T06:34:14.188Z,21.11
2017-05-17T06:35:14.192Z,21.08
2017-05-17T06:36:14.343Z,21.06
2017-05-17T06:37:14.448Z,21.06
2017-05-17T06:38:14.233Z,21.09
2017-05-17T06:39:15.291Z,21.06
2017-05-17T06:40:14.671Z,21.05
2017-05-17T06:41:13.843Z,21.05
2017-05-17T06:42:14.316Z,21.04
2017-05-17T06:43:13.871Z,21.05
2017-05-17T06:44:14.405Z,21.05
2017-05-17T06:45:13.595Z,21.05
2017-05-17T06:46:14.857Z,21.03
2017-05-17T06:47:14.728Z,21.05
2017-05-17T06:48:14.171Z,21.12
2017-05-17T06:49:14.439Z,21.59
2017-05-17T06:50:13.829Z,21.63
2017-05-17T06:51:11.309Z,21.65
2017-05-17T06:52:11.686Z,21.65
2017-05-17T06:53:11.734Z,21.68
2017-05-17T06:54:14.576Z,21.68
2017-05-17T06:55:14.226Z,21.70
2017-05-17T06:56:13.945Z,21.69
2017-05-17T06:57:14.238Z,21.16
2017-05-17T06:58:14.280Z,21.12
2017-05-17T06:59:14.542Z,21.10
2017-05-17T07:00:14.036Z,21.16
2017-05-17T07:01:14.854Z,21.09
2017-05-17T07:02:14.508Z,21.09
2017-05-17T07:03:13.783Z,21.09
2017-05-17T07:04:14.553Z,21.09
2017-05-17T07:05:14.431Z,21.10
2017-05-17T07:06:16.993Z,21.10
2017-05-17T07:07:14.692Z,21.08
2017-05-17T07:08:14.618Z,21.08
2017-05-17T07:09:14.486Z,21.08
2017-05-17T07:10:13.636Z,21.07
2017-05-17T07:11:13.642Z,21.07
2017-05-17T07:12:13.762Z,21.07
2017-05-17T07:13:11.315Z,21.07
2017-05-17T07:14:14.328Z,21.06
2017-05-17T07:15:14.498Z,21.07
2017-05-17T07:16:13.892Z,21.08
2017-05-17T07:17:14.242Z,21.07
2017-05-17T07:18:14.487Z,21.08
2017-05-17T07:19:13.436Z,21.09
2017-05-17T07:20:13.544Z,21.10
2017-05-17T07:21:13.954Z,21.10
2017-05-17T07:22:14.744Z,21.09
2017-05-17T07:23:13.571Z,21.10
2017-05-17T07:24:13.960Z,21.10
2017-05-17T07:25:14.573Z,21.11
2017-05-17T07:26:13.813Z,21.11
2017-05-17T07:27:14.487Z,21.11
2017-05-17T07:28:13.759Z,21.12
2017-05-17T07:29:13.975Z,21.11
2017-05-17T07:30:14.616Z,21.11
2017-05-17T07:31:13.586Z,21.11
2017-05-17T07:32:13.698Z,21.11
2017-05-17T07:33:13.849Z,21.11
2017-05-17T07:34:11.708Z,21.11
2017-05-17T07:35:14.856Z,21.63
2017-05-17T07:36:14.050Z,21.16
2017-05-17T07:37:14.040Z,21.13
2017-05-17T07:38:13.980Z,21.12
2017-05-17T07:39:13.895Z,21.12
2017-05-17T07:40:14.109Z,21.12
2017-05-17T07:41:11.378Z,21.11
2017-05-17T07:42:12.104Z,21.11
2017-05-17T07:43:14.538Z,21.12
2017-05-17T07:44:14.039Z,21.13
2017-05-17T07:45:14.194Z,21.14
2017-05-17T07:46:14.775Z,21.14
2017-05-17T07:47:14.076Z,21.14
2017-05-17T07:48:14.854Z,21.15
2017-05-17T07:49:10.587Z,21.16
2017-05-17T07:50:14.023Z,21.17
2017-05-17T07:51:13.977Z,21.17
2017-05-17T07:52:13.898Z,21.17
2017-05-17T07:53:13.926Z,21.18
2017-05-17T07:54:14.086Z,21.18
2017-05-17T07:55:13.983Z,21.19
2017-05-17T07:56:14.624Z,21.21
2017-05-17T07:57:14.022Z,21.19
2017-05-17T07:58:14.368Z,21.20
2017-05-17T07:59:14.236Z,21.20
2017-05-17T08:00:13.664Z,21.20
2017-05-17T08:01:14.009Z,21.21
2017-05-17T08:02:14.094Z,21.21
2017-05-17T08:03:14.810Z,21.22
2017-05-17T08:04:14.767Z,21.21
2017-05-17T08:05:15.252Z,21.22
2017-05-17T08:06:15.446Z,21.20
2017-05-17T08:07:15.425Z,21.20
2017-05-17T08:08:14.006Z,21.20
2017-05-17T08:09:19.038Z,21.19
2017-05-17T08:10:14.552Z,21.20
2017-05-17T08:11:13.812Z,21.19
2017-05-17T08:12:16.773Z,21.19
2017-05-17T08:13:15.191Z,21.20
2017-05-17T08:14:14.330Z,21.19
2017-05-17T08:15:14.979Z,21.20
2017-05-17T08:16:11.143Z,21.20
2017-05-17T08:17:15.623Z,21.19
2017-05-17T08:18:14.565Z,21.20
2017-05-17T08:19:14.098Z,21.26
2017-05-17T08:20:13.891Z,21.20
2017-05-17T08:21:11.766Z,21.19
2017-05-17T08:22:14.712Z,21.26
2017-05-17T08:23:13.824Z,21.35
2017-05-17T08:24:14.416Z,21.24
2017-05-17T08:25:13.732Z,21.22
2017-05-17T08:26:13.995Z,21.20
2017-05-17T08:27:13.963Z,21.19
2017-05-17T08:28:14.287Z,21.19
2017-05-17T08:29:15.514Z,21.18
2017-05-17T08:30:11.875Z,21.18
2017-05-17T08:31:14.859Z,21.21
2017-05-17T08:32:13.781Z,21.71
2017-05-17T08:33:14.235Z,21.76
2017-05-17T08:34:14.515Z,21.79
2017-05-17T08:35:13.624Z,21.80
2017-05-17T08:36:15.132Z,21.42
2017-05-17T08:37:15.397Z,21.27
2017-05-17T08:38:09.445Z,21.22
2017-05-17T08:39:13.701Z,21.21
2017-05-17T08:40:13.936Z,21.19
2017-05-17T08:41:14.260Z,21.19
2017-05-17T08:42:14.004Z,21.19
2017-05-17T08:43:14.675Z,21.18
2017-05-17T08:44:14.221Z,21.17
2017-05-17T08:45:14.640Z,21.72
2017-05-17T08:46:13.688Z,21.76
2017-05-17T08:47:13.872Z,21.79
2017-05-17T08:48:14.482Z,21.47
2017-05-17T08:49:13.981Z,21.27
2017-05-17T08:50:14.287Z,21.22
2017-05-17T08:51:15.750Z,21.20
2017-05-17T08:52:13.795Z,21.19
2017-05-17T08:53:15.027Z,21.18
2017-05-17T08:54:14.568Z,21.18
2017-05-17T08:55:14.224Z,21.25
2017-05-17T08:56:14.314Z,21.22
2017-05-17T08:57:14.748Z,21.20
2017-05-17T08:58:13.646Z,21.17
2017-05-17T08:59:15.240Z,21.18
2017-05-17T09:00:14.295Z,21.17
2017-05-17T09:01:15.146Z,21.17
2017-05-17T09:02:15.181Z,21.18
2017-05-17T09:03:14.406Z,21.17
2017-05-17T09:04:16.006Z,21.18
2017-05-17T09:05:15.437Z,21.17
2017-05-17T09:06:14.307Z,21.18
2017-05-17T09:07:13.766Z,21.17
2017-05-17T09:08:14.942Z,21.17
2017-05-17T09:09:14.777Z,21.20
2017-05-17T09:10:11.070Z,21.71
2017-05-17T09:11:14.140Z,21.75
2017-05-17T09:12:12.136Z,21.78
2017-05-17T09:13:14.762Z,21.79
2017-05-17T09:14:14.241Z,21.80
2017-05-17T09:15:14.409Z,21.45
2017-05-17T09:16:14.541Z,21.28
2017-05-17T09:17:13.915Z,21.30
2017-05-17T09:18:14.331Z,21.73
2017-05-17T09:19:14.476Z,21.79
2017-05-17T09:20:13.518Z,21.80
2017-05-17T09:21:13.566Z,21.80
2017-05-17T09:22:14.109Z,21.82
2017-05-17T09:23:14.265Z,21.82
2017-05-17T09:24:14.844Z,21.81
2017-05-17T09:25:13.937Z,21.81
2017-05-17T09:26:14.985Z,21.29
2017-05-17T09:27:14.967Z,21.25
2017-05-17T09:28:14.438Z,21.22
2017-05-17T09:29:13.773Z,21.21
2017-05-17T09:30:15.166Z,21.21
2017-05-17T09:31:14.287Z,21.20
2017-05-17T09:32:13.823Z,21.20
2017-05-17T09:33:14.738Z,21.71
2017-05-17T09:34:14.120Z,21.25
2017-05-17T09:35:14.229Z,21.22
2017-05-17T09:36:14.596Z,21.21
2017-05-17T09:37:14.141Z,21.25
2017-05-17T09:38:14.120Z,21.19
2017-05-17T09:39:14.092Z,21.19
2017-05-17T09:40:14.236Z,21.19
2017-05-17T09:41:14.393Z,21.19
2017-05-17T09:42:14.947Z,21.19
2017-05-17T09:43:14.925Z,21.20
2017-05-17T09:44:14.239Z,21.19
2017-05-17T09:45:14.538Z,21.20
2017-05-17T09:46:14.093Z,21.22
2017-05-17T09:47:14.054Z,21.20
2017-05-17T09:48:15.354Z,21.20
2017-05-17T09:49:13.826Z,21.26
2017-05-17T09:50:14.178Z,21.20
2017-05-17T09:51:14.628Z,21.20
2017-05-17T09:52:13.624Z,21.20
2017-05-17T09:53:13.544Z,21.20
2017-05-17T09:54:14.254Z,21.23
2017-05-17T09:55:14.284Z,21.73
2017-05-17T09:56:14.585Z,21.78
2017-05-17T09:57:14.534Z,21.45
2017-05-17T09:58:14.604Z,21.29
2017-05-17T09:59:10.559Z,21.25
2017-05-17T10:00:15.584Z,21.23
2017-05-17T10:01:15.331Z,21.23
2017-05-17T10:02:14.585Z,21.21
2017-05-17T10:03:15.111Z,21.21
2017-05-17T10:04:14.245Z,21.22
2017-05-17T10:05:15.468Z,21.21
2017-05-17T10:06:14.549Z,21.21
2017-05-17T10:07:14.136Z,21.22
2017-05-17T10:08:14.468Z,21.21
2017-05-17T10:09:13.424Z,21.21
2017-05-17T10:10:10.932Z,21.21
2017-05-17T10:11:14.206Z,21.21
2017-05-17T10:12:14.374Z,21.22
2017-05-17T10:13:11.816Z,21.22
2017-05-17T10:14:13.936Z,21.22
2017-05-17T10:15:14.518Z,21.28
2017-05-17T10:16:13.792Z,21.21
2017-05-17T10:17:14.525Z,21.75
2017-05-17T10:18:13.509Z,21.79
2017-05-17T10:19:13.659Z,21.30
2017-05-17T10:20:15.068Z,21.25
2017-05-17T10:21:14.981Z,21.24
2017-05-17T10:22:14.236Z,21.24
2017-05-17T10:23:14.404Z,21.23
2017-05-17T10:24:14.759Z,21.23
2017-05-17T10:25:13.956Z,21.23
2017-05-17T10:26:13.900Z,21.23
2017-05-17T10:27:14.946Z,21.23
2017-05-17T10:28:14.154Z,21.27
2017-05-17T10:29:14.474Z,21.24
2017-05-17T10:30:13.655Z,21.23
2017-05-17T10:31:15.063Z,21.23
2017-05-17T10:32:14.333Z,21.23
2017-05-17T10:33:14.859Z,21.30
2017-05-17T10:34:14.096Z,21.27
2017-05-17T10:35:14.309Z,21.23
2017-05-17T10:36:14.520Z,21.24
2017-05-17T10:37:14.372Z,21.27
2017-05-17T10:38:10.505Z,21.23
2017-05-17T10:39:15.526Z,21.24
2017-05-17T10:40:13.521Z,21.24
2017-05-17T10:41:14.195Z,21.24
2017-05-17T10:42:14.303Z,21.23
2017-05-17T10:43:14.514Z,21.25
2017-05-17T10:44:13.556Z,21.24
2017-05-17T10:45:20.034Z,21.24
2017-05-17T10:46:13.960Z,21.24
2017-05-17T10:47:14.338Z,21.24
2017-05-17T10:48:14.198Z,21.24
2017-05-17T10:49:14.434Z,21.24
2017-05-17T10:50:13.745Z,21.24
2017-05-17T10:51:14.299Z,21.25
2017-05-17T10:52:14.512Z,21.24
2017-05-17T10:53:14.111Z,21.77
2017-05-17T10:54:14.206Z,21.82
2017-05-17T10:55:14.440Z,21.53
2017-05-17T10:56:13.959Z,21.34
2017-05-17T10:57:14.478Z,21.37
2017-05-17T10:58:14.992Z,21.27
2017-05-17T10:59:11.808Z,21.78
2017-05-17T11:00:15.782Z,21.84
2017-05-17T11:01:13.855Z,21.54
2017-05-17T11:02:14.660Z,21.40
2017-05-17T11:03:14.435Z,21.30
2017-05-17T11:04:15.168Z,21.27
2017-05-17T11:05:14.328Z,21.26
2017-05-17T11:06:15.170Z,21.26
2017-05-17T11:07:14.925Z,21.26
2017-05-17T11:08:14.819Z,21.25
2017-05-17T11:09:13.998Z,21.25
2017-05-17T11:10:14.337Z,21.25
2017-05-17T11:11:11.531Z,21.25
2017-05-17T11:12:15.074Z,21.31
2017-05-17T11:13:14.109Z,21.26
2017-05-17T11:14:14.308Z,21.26
2017-05-17T11:15:14.640Z,21.26
2017-05-17T11:16:14.128Z,21.32
2017-05-17T11:17:14.941Z,21.33
2017-05-17T11:18:14.410Z,21.26
2017-05-17T11:19:13.802Z,21.26
2017-05-17T11:20:14.086Z,21.26
2017-05-17T11:21:15.062Z,21.27
2017-05-17T11:22:10.158Z,21.27
2017-05-17T11:23:14.017Z,21.26
2017-05-17T11:24:10.738Z,21.27
2017-05-17T11:25:14.737Z,21.26
2017-05-17T11:26:14.288Z,21.32
2017-05-17T11:27:14.337Z,21.27
2017-05-17T11:28:17.353Z,21.26
2017-05-17T11:29:14.355Z,21.33
2017-05-17T11:30:15.418Z,21.26
2017-05-17T11:31:13.335Z,21.26
2017-05-17T11:32:14.769Z,21.26
2017-05-17T11:33:14.352Z,21.26
2017-05-17T11:34:14.500Z,21.27
2017-05-17T11:35:13.463Z,21.26
2017-05-17T11:36:14.341Z,21.26
2017-05-17T11:37:11.170Z,21.26
2017-05-17T11:38:11.354Z,21.26
2017-05-17T11:39:14.531Z,21.33
2017-05-17T11:40:14.196Z,21.79
2017-05-17T11:41:14.815Z,21.32
2017-05-17T11:42:14.108Z,21.28
2017-05-17T11:43:14.122Z,21.27
2017-05-17T11:44:14.922Z,21.27
2017-05-17T11:45:15.049Z,21.26
2017-05-17T11:46:14.086Z,21.27
2017-05-17T11:47:11.549Z,21.26
2017-05-17T11:48:14.592Z,21.80
2017-05-17T11:49:14.009Z,21.85
2017-05-17T11:50:14.373Z,21.86
2017-05-17T11:51:13.040Z,21.89
2017-05-17T11:52:13.837Z,21.89
2017-05-17T11:53:14.390Z,21.89
2017-05-17T11:54:14.304Z,21.89
2017-05-17T11:55:14.612Z,21.38
2017-05-17T11:56:13.682Z,21.33
2017-05-17T11:57:15.231Z,21.31
2017-05-17T11:58:14.522Z,21.30
2017-05-17T11:59:11.725Z,21.28
2017-05-17T12:00:14.428Z,21.29
2017-05-17T12:01:13.771Z,21.29
2017-05-17T12:02:14.391Z,21.28
2017-05-17T12:03:13.731Z,21.80
2017-05-17T12:04:14.384Z,21.85
2017-05-17T12:05:15.086Z,21.88
2017-05-17T12:06:13.762Z,21.90
2017-05-17T12:07:14.388Z,21.90
2017-05-17T12:08:14.800Z,21.44
2017-05-17T12:09:14.189Z,21.33
2017-05-17T12:10:14.820Z,21.37
2017-05-17T12:11:13.951Z,21.30
2017-05-17T12:12:14.755Z,21.29
2017-05-17T12:13:14.632Z,21.29
2017-05-17T12:14:13.872Z,21.29
2017-05-17T12:15:14.210Z,21.28
2017-05-17T12:16:14.484Z,21.28
2017-05-17T12:17:14.331Z,21.29
2017-05-17T12:18:14.673Z,21.29
2017-05-17T12:19:14.841Z,21.28
2017-05-17T12:20:13.743Z,21.28
2017-05-17T12:21:14.347Z,21.28
2017-05-17T12:22:14.555Z,21.28
2017-05-17T12:23:13.738Z,21.28
2017-05-17T12:24:14.126Z,21.28
2017-05-17T12:25:14.255Z,21.28
2017-05-17T12:26:14.349Z,21.28
2017-05-17T12:27:14.506Z,21.29
2017-05-17T12:28:14.014Z,21.29
2017-05-17T12:29:14.091Z,21.29
2017-05-17T12:30:11.398Z,21.29
2017-05-17T12:31:10.393Z,21.29
2017-05-17T12:32:11.364Z,21.29
2017-05-17T12:33:14.669Z,21.29
2017-05-17T12:34:13.489Z,21.46
2017-05-17T12:35:14.185Z,21.40
2017-05-17T12:36:14.247Z,21.32
2017-05-17T12:37:15.723Z,21.31
2017-05-17T12:38:14.258Z,21.30
2017-05-17T12:39:14.434Z,21.30
2017-05-17T12:40:13.650Z,21.30
2017-05-17T12:41:13.842Z,21.30
2017-05-17T12:42:09.750Z,21.30
2017-05-17T12:43:17.327Z,21.30
2017-05-17T12:44:14.580Z,21.30
2017-05-17T12:45:13.984Z,21.30
2017-05-17T12:46:14.301Z,21.32
2017-05-17T12:47:14.959Z,21.31
2017-05-17T12:48:14.239Z,21.34
2017-05-17T12:49:14.243Z,21.31
2017-05-17T12:50:14.297Z,21.31
2017-05-17T12:51:15.413Z,21.31
2017-05-17T12:52:13.558Z,21.31
2017-05-17T12:53:14.102Z,21.39
2017-05-17T12:54:14.046Z,21.31
2017-05-17T12:55:14.535Z,21.38
2017-05-17T12:56:15.174Z,21.32
2017-05-17T12:57:14.748Z,21.32
2017-05-17T12:58:15.983Z,21.32
2017-05-17T12:59:14.052Z,21.33
2017-05-17T13:00:14.566Z,21.38
2017-05-17T13:01:11.297Z,21.33
2017-05-17T13:02:11.628Z,21.86
2017-05-17T13:03:13.572Z,21.91
2017-05-17T13:04:14.065Z,21.42
2017-05-17T13:05:14.982Z,21.39
2017-05-17T13:06:14.857Z,21.36
2017-05-17T13:07:14.474Z,21.36
2017-05-17T13:08:14.035Z,21.88
2017-05-17T13:09:13.941Z,21.60
2017-05-17T13:10:14.439Z,21.43
2017-05-17T13:11:13.633Z,21.40
2017-05-17T13:12:13.823Z,21.38
2017-05-17T13:13:14.904Z,21.37
2017-05-17T13:14:14.565Z,21.40
2017-05-17T13:15:14.203Z,21.40
2017-05-17T13:16:15.839Z,21.37
2017-05-17T13:17:14.382Z,21.40
2017-05-17T13:18:14.570Z,21.38
2017-05-17T13:19:13.709Z,21.38
2017-05-17T13:20:14.063Z,21.39
2017-05-17T13:21:14.980Z,21.39
2017-05-17T13:22:11.598Z,21.39
2017-05-17T13:23:14.686Z,21.40
2017-05-17T13:24:14.416Z,21.40
2017-05-17T13:25:13.911Z,21.41
2017-05-17T13:26:14.197Z,21.41
2017-05-17T13:27:14.272Z,21.41
2017-05-17T13:28:14.290Z,21.41
2017-05-17T13:29:14.672Z,21.48
2017-05-17T13:30:13.695Z,21.58
2017-05-17T13:31:14.326Z,21.46
2017-05-17T13:32:14.878Z,21.51
2017-05-17T13:33:14.040Z,21.45
2017-05-17T13:34:14.760Z,21.44
2017-05-17T13:35:14.046Z,21.44
2017-05-17T13:36:15.590Z,21.44
2017-05-17T13:37:13.484Z,21.45
2017-05-17T13:38:13.761Z,21.45
2017-05-17T13:39:14.013Z,21.46
2017-05-17T13:40:14.547Z,21.46
2017-05-17T13:41:14.221Z,21.47
2017-05-17T13:42:14.798Z,21.47
2017-05-17T13:43:13.687Z,21.47
2017-05-17T13:44:14.602Z,21.48
2017-05-17T13:45:13.650Z,21.48
2017-05-17T13:46:13.962Z,21.49
2017-05-17T13:47:14.369Z,21.49
2017-05-17T13:48:14.722Z,21.50
2017-05-17T13:49:13.838Z,21.50
2017-05-17T13:50:14.041Z,21.51
2017-05-17T13:51:13.974Z,21.52
2017-05-17T13:52:13.955Z,21.53
2017-05-17T13:53:14.043Z,21.53
2017-05-17T13:54:14.175Z,21.54
2017-05-17T13:55:11.409Z,21.55
2017-05-17T13:56:14.423Z,21.55
2017-05-17T13:57:15.511Z,21.62
2017-05-17T13:58:13.706Z,21.57
2017-05-17T13:59:15.376Z,21.57
2017-05-17T14:00:14.252Z,21.64
2017-05-17T14:01:14.648Z,21.59
2017-05-17T14:02:14.031Z,21.59
2017-05-17T14:03:14.384Z,21.60
2017-05-17T14:04:13.931Z,21.61
2017-05-17T14:05:14.492Z,21.64
2017-05-17T14:06:13.665Z,21.62
2017-05-17T14:07:13.768Z,21.63
2017-05-17T14:08:14.019Z,21.63
2017-05-17T14:09:14.081Z,21.65
2017-05-17T14:10:14.143Z,21.65
2017-05-17T14:11:14.885Z,21.66
2017-05-17T14:12:13.729Z,21.67
2017-05-17T14:13:14.974Z,21.68
2017-05-17T14:14:14.460Z,21.72
2017-05-17T14:15:13.825Z,21.69
2017-05-17T14:16:13.686Z,21.70
2017-05-17T14:17:11.751Z,21.70
2017-05-17T14:18:14.341Z,22.24
2017-05-17T14:19:14.380Z,22.31
2017-05-17T14:20:13.944Z,22.34
2017-05-17T14:21:14.182Z,22.36
2017-05-17T14:22:14.364Z,22.36
2017-05-17T14:23:15.653Z,22.03
2017-05-17T14:24:14.279Z,21.86
2017-05-17T14:25:14.397Z,21.83
2017-05-17T14:26:14.353Z,21.81
2017-05-17T14:27:14.673Z,21.81
2017-05-17T14:28:13.758Z,21.81
2017-05-17T14:29:14.155Z,21.81
2017-05-17T14:30:14.721Z,21.82
2017-05-17T14:31:14.258Z,21.82
2017-05-17T14:32:15.247Z,21.84
2017-05-17T14:33:14.542Z,21.84
2017-05-17T14:34:13.215Z,21.85
2017-05-17T14:35:14.321Z,21.86
2017-05-17T14:36:14.689Z,21.92
2017-05-17T14:37:13.854Z,21.87
2017-05-17T14:38:13.852Z,21.88
2017-05-17T14:39:14.038Z,21.89
2017-05-17T14:40:13.875Z,21.90
2017-05-17T14:41:14.009Z,21.91
2017-05-17T14:42:14.188Z,21.92
2017-05-17T14:43:11.856Z,21.92
2017-05-17T14:44:11.596Z,21.93
2017-05-17T14:45:11.179Z,21.94
2017-05-17T14:46:13.771Z,22.49
2017-05-17T14:47:14.019Z,22.55
2017-05-17T14:48:14.128Z,22.58
2017-05-17T14:49:10.637Z,22.08
2017-05-17T14:50:14.274Z,22.58
2017-05-17T14:51:14.614Z,22.63
2017-05-17T14:52:10.983Z,22.65
2017-05-17T14:53:13.791Z,22.29
2017-05-17T14:54:14.123Z,22.21
2017-05-17T14:55:15.334Z,22.10
2017-05-17T14:56:15.650Z,22.10
2017-05-17T14:57:13.675Z,22.08
2017-05-17T14:58:15.360Z,22.11
2017-05-17T14:59:14.031Z,22.15
2017-05-17T15:00:14.774Z,22.11
2017-05-17T15:01:14.802Z,22.11
2017-05-17T15:02:14.036Z,22.12
2017-05-17T15:03:14.587Z,22.13
2017-05-17T15:04:14.754Z,22.14
2017-05-17T15:05:13.743Z,22.15
2017-05-17T15:06:11.623Z,22.15
2017-05-17T15:07:15.354Z,22.16
2017-05-17T15:08:14.679Z,22.17
2017-05-17T15:09:13.752Z,22.18
2017-05-17T15:10:11.192Z,22.18
2017-05-17T15:11:14.263Z,22.20
2017-05-17T15:12:14.472Z,22.20
2017-05-17T15:13:14.027Z,22.21
2017-05-17T15:14:15.073Z,22.23
2017-05-17T15:15:14.319Z,22.24
2017-05-17T15:16:14.521Z,22.24
2017-05-17T15:17:13.534Z,22.24
2017-05-17T15:18:13.680Z,22.25
2017-05-17T15:19:13.809Z,22.26
2017-05-17T15:20:13.975Z,22.27
2017-05-17T15:21:13.939Z,22.28
2017-05-17T15:22:14.380Z,22.29
2017-05-17T15:23:14.080Z,22.30
2017-05-17T15:24:14.317Z,22.31
2017-05-17T15:25:13.369Z,22.33
2017-05-17T15:26:14.838Z,22.41
2017-05-17T15:27:14.334Z,22.34
2017-05-17T15:28:14.583Z,22.35
2017-05-17T15:29:10.317Z,22.36
2017-05-17T15:30:14.967Z,22.91
2017-05-17T15:31:11.003Z,22.95
2017-05-17T15:32:14.692Z,23.00
2017-05-17T15:33:15.282Z,22.65
2017-05-17T15:34:15.593Z,22.51
2017-05-17T15:35:13.582Z,22.47
2017-05-17T15:36:14.626Z,22.46
2017-05-17T15:37:14.253Z,22.46
2017-05-17T15:38:14.346Z,22.47
2017-05-17T15:39:13.379Z,22.47
2017-05-17T15:40:14.359Z,22.48
2017-05-17T15:41:15.145Z,22.48
2017-05-17T15:42:15.333Z,22.49
2017-05-17T15:43:10.212Z,22.49
2017-05-17T15:44:14.536Z,22.50
2017-05-17T15:45:13.311Z,22.52
2017-05-17T15:46:14.509Z,22.58
2017-05-17T15:47:13.730Z,22.53
2017-05-17T15:48:14.199Z,22.54
2017-05-17T15:49:14.393Z,22.55
2017-05-17T15:50:14.864Z,22.56
2017-05-17T15:51:13.869Z,22.57
2017-05-17T15:52:14.809Z,22.58
2017-05-17T15:53:15.317Z,22.58
2017-05-17T15:54:14.236Z,22.61
2017-05-17T15:55:15.788Z,22.59
2017-05-17T15:56:14.302Z,22.60
2017-05-17T15:57:12.422Z,22.60
2017-05-17T15:58:14.516Z,22.68
2017-05-17T15:59:13.601Z,22.62
2017-05-17T16:00:14.083Z,22.68
2017-05-17T16:01:14.139Z,22.63
2017-05-17T16:02:11.056Z,22.63
2017-05-17T16:03:14.661Z,22.64
2017-05-17T16:04:13.762Z,22.66
2017-05-17T16:05:14.466Z,22.65
2017-05-17T16:06:13.348Z,22.67
2017-05-17T16:07:14.265Z,22.68
2017-05-17T16:08:14.360Z,22.68
2017-05-17T16:09:14.833Z,22.69
2017-05-17T16:10:14.531Z,22.70
2017-05-17T16:11:14.143Z,22.69
2017-05-17T16:12:14.385Z,22.70
2017-05-17T16:13:11.140Z,22.69
2017-05-17T16:14:13.990Z,22.70
2017-05-17T16:15:14.129Z,22.71
2017-05-17T16:16:14.183Z,22.72
2017-05-17T16:17:14.376Z,22.72
2017-05-17T16:18:14.737Z,22.73
2017-05-17T16:19:13.914Z,22.74
2017-05-17T16:20:14.203Z,22.78
2017-05-17T16:21:15.663Z,22.75
2017-05-17T16:22:14.771Z,22.75
2017-05-17T16:23:14.699Z,22.76
2017-05-17T16:24:13.783Z,22.76
2017-05-17T16:25:14.734Z,22.77
2017-05-17T16:26:14.116Z,22.77
2017-05-17T16:27:11.387Z,22.78
2017-05-17T16:28:14.502Z,22.78
2017-05-17T16:29:13.868Z,22.79
2017-05-17T16:30:15.017Z,22.80
2017-05-17T16:31:14.490Z,22.81
2017-05-17T16:32:13.824Z,22.82
2017-05-17T16:33:14.521Z,22.89
2017-05-17T16:34:13.074Z,22.84
2017-05-17T16:35:14.097Z,22.85
2017-05-17T16:36:14.379Z,22.93
2017-05-17T16:37:14.381Z,22.87
2017-05-17T16:38:13.605Z,22.87
2017-05-17T16:39:14.649Z,22.87
2017-05-17T16:40:15.014Z,22.88
2017-05-17T16:41:14.557Z,22.89
2017-05-17T16:42:15.084Z,22.91
2017-05-17T16:43:14.590Z,22.92
2017-05-17T16:44:13.437Z,22.93
2017-05-17T16:45:13.749Z,22.93
2017-05-17T16:46:13.760Z,22.94
2017-05-17T16:47:14.044Z,22.94
2017-05-17T16:48:14.110Z,22.94
2017-05-17T16:49:14.241Z,22.95
2017-05-17T16:50:15.255Z,22.96
2017-05-17T16:51:13.789Z,22.96
2017-05-17T16:52:14.014Z,22.98
2017-05-17T16:53:11.479Z,22.98
2017-05-17T16:54:15.148Z,22.99
2017-05-17T16:55:14.633Z,22.98
2017-05-17T16:56:14.727Z,22.97
2017-05-17T16:57:14.355Z,22.97
2017-05-17T16:58:15.758Z,22.94
2017-05-17T16:59:14.041Z,22.93
2017-05-17T17:00:11.738Z,22.89
2017-05-17T17:01:14.961Z,23.39
2017-05-17T17:02:14.736Z,23.40
2017-05-17T17:03:13.550Z,23.39
2017-05-17T17:04:14.006Z,23.37
2017-05-17T17:05:13.904Z,23.35
2017-05-17T17:06:15.182Z,23.32
2017-05-17T17:07:14.858Z,23.28
2017-05-17T17:08:14.031Z,23.27
2017-05-17T17:09:10.371Z,23.25
2017-05-17T17:10:14.575Z,23.22
2017-05-17T17:11:14.331Z,23.21
2017-05-17T17:12:14.527Z,22.86
2017-05-17T17:13:13.763Z,22.64
2017-05-17T17:14:13.929Z,22.57
2017-05-17T17:15:14.262Z,22.53
2017-05-17T17:16:15.125Z,22.51
2017-05-17T17:17:14.738Z,22.48
2017-05-17T17:18:13.726Z,22.45